Time;durP1;ratioP1;P1;durP2;ratioP2;P2;SDS_P1;SDS_P2;PMS_P1;PMS_P2;Temp;Humidity;BMP_temperature;BMP_pressure;BME280_temperature;BME280_humidity;BME280_pressure;Samples;Min_cycle;Max_cycle;Signal;HPM_P1;HPM_P2
2023/05/18 00:01:21;;;;;;;10.02;4.03;;;;;;;13.38;100.00;101756.41;4990325;28;20141;-68
2023/05/18 00:03:47;;;;;;;10.90;3.55;;;;;;;13.38;100.00;101745.88;4990308;28;20133;-68
2023/05/18 00:06:15;;;;;;;9.98;3.80;;;;;;;13.28;100.00;101758.44;4989807;28;20058;-67
2023/05/18 00:08:41;;;;;;;11.93;4.70;;;;;;;13.20;100.00;101750.78;4991583;28;20121;-67
2023/05/18 00:11:08;;;;;;;9.70;3.83;;;;;;;13.15;100.00;101755.34;4989546;28;20526;-68
2023/05/18 00:13:35;;;;;;;12.18;3.92;;;;;;;13.01;100.00;101749.66;4988903;28;20145;-67
2023/05/18 00:16:02;;;;;;;9.13;3.60;;;;;;;13.21;100.00;101746.38;4989607;28;20484;-67
2023/05/18 00:18:28;;;;;;;7.95;3.20;;;;;;;13.17;100.00;101745.63;4990143;28;20054;-68
2023/05/18 00:20:58;;;;;;;11.60;3.95;;;;;;;13.24;100.00;101749.81;4990284;28;20113;-68
2023/05/18 00:23:31;;;;;;;10.73;3.58;;;;;;;13.11;100.00;101753.72;4984602;28;20046;-68
2023/05/18 00:26:00;;;;;;;9.15;3.47;;;;;;;13.38;100.00;101741.47;4988593;28;20046;-66
2023/05/18 00:28:27;;;;;;;11.00;3.97;;;;;;;13.38;100.00;101738.84;4989872;28;20054;-67
2023/05/18 00:30:54;;;;;;;10.27;3.95;;;;;;;13.36;100.00;101742.44;4972613;28;20069;-67
2023/05/18 00:33:22;;;;;;;11.10;3.67;;;;;;;13.27;100.00;101741.78;4990388;28;20061;-67
2023/05/18 00:35:49;;;;;;;8.07;3.13;;;;;;;13.33;100.00;101740.75;4988642;28;20054;-67
2023/05/18 00:38:16;;;;;;;9.35;3.15;;;;;;;13.42;100.00;101734.31;4989865;28;20068;-67
2023/05/18 00:40:43;;;;;;;10.35;3.63;;;;;;;13.39;100.00;101744.97;4989041;28;20093;-67
2023/05/18 00:43:10;;;;;;;10.68;3.75;;;;;;;13.39;100.00;101745.81;4988416;28;20089;-67
2023/05/18 00:45:37;;;;;;;10.63;3.75;;;;;;;13.45;100.00;101744.75;4987386;28;20170;-67
2023/05/18 00:48:04;;;;;;;8.77;3.05;;;;;;;13.51;100.00;101741.06;4988721;28;20056;-67
2023/05/18 00:50:31;;;;;;;7.72;3.22;;;;;;;13.37;100.00;101739.75;4987040;28;20161;-67
2023/05/18 00:52:59;;;;;;;10.85;3.08;;;;;;;13.47;100.00;101735.91;4988507;28;20046;-67
2023/05/18 00:55:27;;;;;;;12.10;3.58;;;;;;;13.36;100.00;101729.28;4987161;28;20053;-67
2023/05/18 00:57:55;;;;;;;8.82;3.05;;;;;;;13.25;100.00;101727.84;4987923;28;20042;-67
2023/05/18 01:00:23;;;;;;;9.68;3.15;;;;;;;13.36;100.00;101722.25;4987195;28;20057;-67
2023/05/18 01:02:50;;;;;;;9.77;3.42;;;;;;;13.65;100.00;101738.81;4987788;28;20133;-67
2023/05/18 01:05:18;;;;;;;8.55;3.13;;;;;;;13.53;100.00;101734.84;4986864;28;20101;-67
2023/05/18 01:07:46;;;;;;;8.43;3.35;;;;;;;13.49;100.00;101730.56;4977123;28;20520;-67
2023/05/18 01:10:16;;;;;;;9.85;3.03;;;;;;;13.53;100.00;101732.22;4985616;28;20133;-67
2023/05/18 01:12:48;;;;;;;10.88;3.17;;;;;;;13.64;100.00;101737.97;4988310;28;20058;-67
2023/05/18 01:15:24;;;;;;;8.40;2.85;;;;;;;13.86;100.00;101737.19;4987137;28;20138;-67
2023/05/18 01:18:03;;;;;;;9.45;3.10;;;;;;;13.72;100.00;101750.84;4989915;28;20058;-67
2023/05/18 01:20:44;;;;;;;8.93;3.17;;;;;;;13.39;100.00;101718.66;4983686;28;20381;-67
2023/05/18 01:23:43;;;;;;;8.73;3.10;;;;;;;13.46;100.00;101736.81;4983467;28;20057;-67
2023/05/18 01:26:36;;;;;;;8.13;3.00;;;;;;;13.55;100.00;101740.06;4988427;28;20093;-67
2023/05/18 01:29:07;;;;;;;9.33;3.03;;;;;;;13.54;100.00;101731.28;4982700;28;20043;-67
2023/05/18 01:31:34;;;;;;;7.75;2.60;;;;;;;13.57;100.00;101735.59;4989447;28;20054;-67
2023/05/18 01:34:01;;;;;;;10.88;3.65;;;;;;;13.48;100.00;101731.50;4991769;28;20476;-67
2023/05/18 01:36:28;;;;;;;10.57;3.63;;;;;;;13.53;100.00;101732.22;4974705;28;20120;-67
2023/05/18 01:39:00;;;;;;;10.02;3.40;;;;;;;13.56;100.00;101745.25;4986549;28;20066;-67
2023/05/18 01:41:28;;;;;;;11.20;3.75;;;;;;;13.41;100.00;101733.47;4998162;28;20082;-67
2023/05/18 01:44:08;;;;;;;9.55;3.25;;;;;;;13.53;100.00;101742.75;4961618;28;20141;-67
2023/05/18 01:46:57;;;;;;;12.77;3.50;;;;;;;13.32;100.00;101741.69;4992946;28;20574;-67
2023/05/18 01:49:46;;;;;;;9.85;3.17;;;;;;;13.55;100.00;101746.16;4992008;28;20060;-67
2023/05/18 01:52:30;;;;;;;8.75;3.05;;;;;;;13.66;100.00;101733.50;4991494;28;20047;-67
2023/05/18 01:55:02;;;;;;;13.05;2.95;;;;;;;13.71;100.00;101745.66;4990649;28;20448;-67
2023/05/18 01:57:31;;;;;;;8.77;3.05;;;;;;;13.72;100.00;101744.72;4992640;28;20054;-67
2023/05/18 01:59:58;;;;;;;9.15;3.35;;;;;;;13.74;100.00;101742.88;4992166;28;20464;-67
2023/05/18 02:02:28;;;;;;;8.75;2.72;;;;;;;13.72;100.00;101745.56;4992536;28;20061;-67
2023/05/18 02:04:55;;;;;;;8.13;2.85;;;;;;;13.70;100.00;101743.94;4989921;28;20077;-67
2023/05/18 02:07:21;;;;;;;9.75;3.15;;;;;;;13.70;100.00;101738.66;4989326;28;20054;-67
2023/05/18 02:09:48;;;;;;;8.25;3.30;;;;;;;13.58;100.00;101716.25;4990440;28;20054;-67
2023/05/18 02:12:15;;;;;;;8.45;2.85;;;;;;;13.88;100.00;101739.78;4990526;28;20492;-67
2023/05/18 02:14:42;;;;;;;7.65;2.55;;;;;;;13.86;100.00;101745.97;4991988;28;20190;-67
2023/05/18 02:17:10;;;;;;;16.23;3.33;;;;;;;13.75;100.00;101748.09;4989778;28;20144;-67
2023/05/18 02:19:37;;;;;;;10.50;3.25;;;;;;;13.85;100.00;101751.28;4991431;28;20476;-67
2023/05/18 02:22:05;;;;;;;7.68;2.67;;;;;;;13.69;100.00;101750.97;4974269;28;20420;-66
2023/05/18 02:24:33;;;;;;;8.45;2.80;;;;;;;13.75;100.00;101749.88;4990267;28;20430;-66
2023/05/18 02:27:00;;;;;;;7.22;2.55;;;;;;;13.71;100.00;101749.13;4989944;28;20480;-67
2023/05/18 02:29:27;;;;;;;9.20;2.83;;;;;;;13.63;100.00;101751.16;4976053;28;20058;-67
2023/05/18 02:31:53;;;;;;;11.57;3.25;;;;;;;13.46;100.00;101742.06;4990528;28;20146;-67
2023/05/18 02:34:21;;;;;;;10.90;3.67;;;;;;;13.44;100.00;101738.66;4990529;28;20435;-67
2023/05/18 02:36:48;;;;;;;8.13;2.95;;;;;;;13.46;100.00;101741.22;4976514;28;20058;-67
2023/05/18 02:39:15;;;;;;;10.35;3.90;;;;;;;13.45;100.00;101737.72;4991997;28;20062;-67
2023/05/18 02:41:42;;;;;;;8.10;2.70;;;;;;;13.61;100.00;101750.34;4991391;28;20058;-67
2023/05/18 02:44:11;;;;;;;11.77;3.83;;;;;;;13.58;100.00;101734.66;4990548;28;20050;-67
2023/05/18 02:46:38;;;;;;;10.05;3.20;;;;;;;13.57;100.00;101733.81;4991524;28;20116;-67
2023/05/18 02:49:04;;;;;;;9.30;3.60;;;;;;;13.47;100.00;101727.16;4991918;28;20061;-67
2023/05/18 02:51:31;;;;;;;10.38;3.10;;;;;;;13.71;100.00;101743.88;4990176;28;20054;-67
2023/05/18 02:53:58;;;;;;;8.23;2.88;;;;;;;13.56;100.00;101736.50;4990817;28;20050;-66
2023/05/18 02:56:25;;;;;;;10.40;3.67;;;;;;;13.54;100.00;101739.19;4990430;28;20136;-68
2023/05/18 02:58:56;;;;;;;7.95;2.90;;;;;;;13.47;100.00;101735.91;4990818;28;20133;-66
2023/05/18 03:01:25;;;;;;;8.63;3.08;;;;;;;13.57;100.00;101735.59;4990909;28;20065;-66
2023/05/18 03:03:53;;;;;;;8.38;3.30;;;;;;;13.45;100.00;101723.72;4990796;28;20058;-66
2023/05/18 03:06:25;;;;;;;9.20;3.20;;;;;;;13.44;100.00;101735.16;4989429;28;20062;-67
2023/05/18 03:08:55;;;;;;;7.85;2.60;;;;;;;13.71;100.00;101732.50;4991156;28;20068;-66
2023/05/18 03:11:23;;;;;;;12.70;3.03;;;;;;;13.68;100.00;101720.28;4981615;28;20046;-67
2023/05/18 03:13:49;;;;;;;8.40;2.60;;;;;;;13.84;100.00;101736.41;4989606;28;20054;-67
2023/05/18 03:16:17;;;;;;;9.07;3.40;;;;;;;13.83;100.00;101719.75;4990492;28;20056;-67
2023/05/18 03:18:44;;;;;;;7.63;2.95;;;;;;;13.89;100.00;101721.31;4991227;28;20129;-67
2023/05/18 03:21:12;;;;;;;9.02;2.83;;;;;;;13.85;100.00;101710.03;4990689;28;20133;-67
2023/05/18 03:23:39;;;;;;;8.70;3.33;;;;;;;13.86;100.00;101722.28;4990391;28;20050;-67
2023/05/18 03:26:10;;;;;;;8.73;2.92;;;;;;;13.76;100.00;101715.63;4990866;28;20085;-67
2023/05/18 03:28:37;;;;;;;7.65;2.60;;;;;;;13.93;100.00;101724.69;4982435;28;20536;-67
2023/05/18 03:31:04;;;;;;;11.63;3.85;;;;;;;13.80;100.00;101711.13;4986075;28;20093;-67
2023/05/18 03:33:31;;;;;;;7.82;2.80;;;;;;;13.73;100.00;101710.47;4991158;28;20137;-67
2023/05/18 03:36:03;;;;;;;8.77;2.85;;;;;;;13.73;100.00;101705.19;4989832;28;20054;-66
2023/05/18 03:38:30;;;;;;;7.75;2.88;;;;;;;13.78;100.00;101707.69;4991749;28;20392;-66
2023/05/18 03:40:57;;;;;;;8.43;2.95;;;;;;;13.76;100.00;101715.63;4991187;28;20097;-66
2023/05/18 03:43:28;;;;;;;9.95;3.00;;;;;;;13.45;100.00;101721.06;4990746;28;20061;-66
2023/05/18 03:45:55;;;;;;;9.88;2.97;;;;;;;13.42;100.00;101716.78;4992795;28;20101;-66
2023/05/18 03:48:23;;;;;;;8.80;3.05;;;;;;;13.46;100.00;101722.81;4991712;28;20452;-66
2023/05/18 03:50:49;;;;;;;10.23;3.80;;;;;;;13.39;100.00;101711.63;4989525;28;20046;-66
2023/05/18 03:53:20;;;;;;;8.32;3.05;;;;;;;13.54;100.00;101726.03;4991056;28;20056;-67
2023/05/18 03:55:51;;;;;;;7.65;2.78;;;;;;;13.33;100.00;101708.34;4989012;28;20524;-66
2023/05/18 03:58:21;;;;;;;8.05;2.90;;;;;;;13.32;100.00;101714.53;4992520;28;20076;-66
2023/05/18 04:00:49;;;;;;;9.13;3.13;;;;;;;13.29;100.00;101711.03;4990641;28;20141;-67
2023/05/18 04:03:16;;;;;;;7.05;2.70;;;;;;;13.29;100.00;101710.19;4990771;28;20137;-67
2023/05/18 04:05:43;;;;;;;11.77;3.75;;;;;;;13.15;100.00;101710.63;4989215;28;20088;-67
2023/05/18 04:08:13;;;;;;;11.88;3.85;;;;;;;13.12;100.00;101705.50;4990253;28;20054;-67
2023/05/18 04:10:43;;;;;;;9.95;3.28;;;;;;;13.17;100.00;101715.84;4990293;28;20054;-67
2023/05/18 04:13:11;;;;;;;8.18;3.03;;;;;;;13.24;100.00;101712.97;4992405;28;20101;-67
2023/05/18 04:15:37;;;;;;;9.13;3.05;;;;;;;13.38;100.00;101709.91;4968918;28;20535;-67
2023/05/18 04:18:04;;;;;;;9.27;3.40;;;;;;;13.39;100.00;101716.91;4980112;28;20504;-67
2023/05/18 04:20:31;;;;;;;8.80;3.13;;;;;;;13.40;100.00;101713.38;4990222;28;20490;-67
2023/05/18 04:22:58;;;;;;;9.98;4.05;;;;;;;13.27;100.00;101712.00;4990544;28;20136;-67
2023/05/18 04:25:26;;;;;;;10.35;3.50;;;;;;;13.08;100.00;101710.00;4990275;28;20058;-67
2023/05/18 04:27:55;;;;;;;9.48;3.50;;;;;;;12.95;100.00;101682.38;4987761;28;20177;-67
2023/05/18 04:30:22;;;;;;;9.40;3.78;;;;;;;13.15;100.00;101715.03;4980362;28;20074;-67
2023/05/18 04:32:50;;;;;;;9.80;3.70;;;;;;;13.15;100.00;101699.25;4989872;28;20146;-67
2023/05/18 04:35:17;;;;;;;9.68;3.28;;;;;;;13.18;100.00;101699.16;4989229;28;20698;-67
2023/05/18 04:37:44;;;;;;;10.20;3.20;;;;;;;13.26;100.00;101705.00;4991135;28;20077;-67
2023/05/18 04:40:15;;;;;;;8.18;3.05;;;;;;;13.25;100.00;101703.31;4990706;28;20130;-67
2023/05/18 04:42:46;;;;;;;9.38;2.83;;;;;;;13.35;100.00;101714.41;4990481;28;20066;-67
2023/05/18 04:45:19;;;;;;;12.02;3.58;;;;;;;13.27;100.00;101714.63;4989773;28;20058;-67
2023/05/18 04:47:51;;;;;;;9.52;3.17;;;;;;;13.36;100.00;101722.25;4990323;28;20459;-67
2023/05/18 04:50:22;;;;;;;9.30;3.05;;;;;;;13.29;100.00;101721.56;4989254;28;20038;-67
2023/05/18 04:52:50;;;;;;;9.88;3.35;;;;;;;13.21;100.00;101723.59;4990676;28;20057;-67
2023/05/18 04:55:21;;;;;;;9.35;2.75;;;;;;;13.35;100.00;101725.81;4989586;28;20304;-67
2023/05/18 04:57:49;;;;;;;9.35;3.58;;;;;;;13.13;100.00;101730.88;4989774;28;20097;-67
2023/05/18 05:00:17;;;;;;;8.40;2.90;;;;;;;13.29;100.00;101725.97;4990152;28;20049;-67
2023/05/18 05:02:44;;;;;;;9.65;3.20;;;;;;;13.34;100.00;101720.59;4994281;28;20046;-67
2023/05/18 05:05:11;;;;;;;12.05;3.42;;;;;;;13.36;100.00;101731.91;4992950;28;20097;-67
2023/05/18 05:07:37;;;;;;;10.05;3.50;;;;;;;13.41;100.00;101724.72;4994588;28;20046;-67
2023/05/18 05:10:05;;;;;;;9.63;3.97;;;;;;;13.47;100.00;101728.03;4993709;28;20061;-67
2023/05/18 05:12:32;;;;;;;12.23;3.70;;;;;;;13.51;100.00;101734.03;4993827;28;20702;-67
2023/05/18 05:14:59;;;;;;;9.82;3.78;;;;;;;13.51;100.00;101728.78;4992840;28;20197;-67
2023/05/18 05:17:25;;;;;;;11.40;3.42;;;;;;;13.73;100.00;101734.16;4994046;28;20519;-67
2023/05/18 05:19:52;;;;;;;9.43;3.35;;;;;;;13.68;100.00;101707.97;4993388;28;20050;-67
2023/05/18 05:22:19;;;;;;;8.60;2.65;;;;;;;14.03;100.00;101728.72;4981738;28;20054;-67
2023/05/18 05:24:46;;;;;;;9.27;2.75;;;;;;;14.00;100.00;101723.56;4982275;28;20065;-67
2023/05/18 05:27:13;;;;;;;9.07;2.90;;;;;;;14.13;100.00;101737.13;4979309;28;20062;-67
2023/05/18 05:29:39;;;;;;;6.30;2.30;;;;;;;14.15;100.00;101733.53;4978363;28;20046;-67
2023/05/18 05:32:06;;;;;;;6.80;2.42;;;;;;;14.30;100.00;101732.09;4991596;28;20046;-67
2023/05/18 05:34:33;;;;;;;9.82;2.85;;;;;;;14.20;100.00;101728.06;4989660;28;20048;-67
2023/05/18 05:37:00;;;;;;;8.98;3.33;;;;;;;14.08;100.00;101732.03;4988736;28;20053;-67
2023/05/18 05:39:26;;;;;;;9.43;3.33;;;;;;;14.05;100.00;101729.50;4985981;28;20061;-67
2023/05/18 05:41:53;;;;;;;10.18;3.30;;;;;;;14.04;100.00;101744.47;4978370;28;20084;-67
2023/05/18 05:44:20;;;;;;;7.63;2.65;;;;;;;14.07;100.00;101748.75;4984080;28;20050;-67
2023/05/18 05:46:47;;;;;;;7.70;2.50;;;;;;;13.99;100.00;101737.66;4993126;28;20049;-67
2023/05/18 05:49:14;;;;;;;9.70;3.13;;;;;;;14.05;100.00;101750.56;4983066;28;20480;-67
2023/05/18 05:51:40;;;;;;;8.35;2.75;;;;;;;14.17;100.00;101742.22;4991560;28;20043;-67
2023/05/18 05:54:07;;;;;;;7.97;2.92;;;;;;;14.16;100.00;101750.19;4979182;28;20510;-67
2023/05/18 05:56:36;;;;;;;8.35;2.90;;;;;;;14.21;100.00;101746.47;4989032;28;20050;-67
2023/05/18 05:59:03;;;;;;;9.10;3.30;;;;;;;14.30;100.00;101757.59;4992150;28;20058;-67
2023/05/18 06:01:29;;;;;;;8.23;3.00;;;;;;;14.18;100.00;101758.88;4987860;28;20046;-67
2023/05/18 06:03:56;;;;;;;9.18;3.13;;;;;;;13.97;100.00;101744.72;4987065;28;20054;-67
2023/05/18 06:06:23;;;;;;;8.57;3.20;;;;;;;14.17;100.00;101765.94;4983367;28;20082;-67
2023/05/18 06:08:49;;;;;;;10.00;3.30;;;;;;;14.33;100.00;101766.22;4987485;28;20055;-68
2023/05/18 06:11:16;;;;;;;12.13;3.20;;;;;;;14.41;100.00;101765.94;4981520;28;20051;-67
2023/05/18 06:13:43;;;;;;;7.35;2.53;;;;;;;14.55;100.00;101771.53;4984093;28;20042;-67
2023/05/18 06:16:10;;;;;;;8.27;2.97;;;;;;;14.60;100.00;101777.53;4978210;28;20055;-68
2023/05/18 06:18:38;;;;;;;11.18;3.22;;;;;;;14.45;100.00;101767.56;4988179;28;20057;-67
2023/05/18 06:21:05;;;;;;;6.72;2.60;;;;;;;14.49;100.00;101778.84;4991286;28;20046;-67
2023/05/18 06:23:31;;;;;;;9.88;3.17;;;;;;;14.50;100.00;101781.44;4992006;28;20051;-67
2023/05/18 06:25:58;;;;;;;10.50;3.30;;;;;;;14.51;100.00;101777.88;4988543;28;20101;-67
2023/05/18 06:28:25;;;;;;;8.57;2.97;;;;;;;14.43;100.00;101780.78;4986650;28;20058;-67
2023/05/18 06:30:52;;;;;;;10.15;2.80;;;;;;;14.58;100.00;101779.38;4988429;28;20054;-67
2023/05/18 06:33:20;;;;;;;8.52;2.80;;;;;;;14.50;100.00;101777.91;4977150;28;20084;-67
2023/05/18 06:35:47;;;;;;;7.50;2.95;;;;;;;14.46;100.00;101784.22;4990857;28;20504;-66
2023/05/18 06:38:14;;;;;;;7.95;2.78;;;;;;;14.73;100.00;101782.34;4991120;28;20062;-67
2023/05/18 06:40:40;;;;;;;9.40;2.83;;;;;;;14.68;100.00;101785.19;4991687;28;20047;-67
2023/05/18 06:43:07;;;;;;;6.90;2.63;;;;;;;14.68;100.00;101777.28;4991019;28;20137;-67
2023/05/18 06:45:34;;;;;;;10.95;2.85;;;;;;;14.51;100.00;101775.22;4990425;28;20373;-67
2023/05/18 06:48:03;;;;;;;8.60;2.90;;;;;;;14.64;100.00;101786.19;4991640;28;20137;-67
2023/05/18 06:50:30;;;;;;;8.38;2.75;;;;;;;14.59;100.00;101782.91;4990641;28;20058;-67
2023/05/18 06:52:57;;;;;;;8.43;2.72;;;;;;;14.86;100.00;101783.59;4991222;28;20473;-67
2023/05/18 06:55:23;;;;;;;9.80;2.72;;;;;;;14.86;100.00;101774.84;4990354;28;20173;-67
2023/05/18 06:57:51;;;;;;;7.50;2.58;;;;;;;15.11;100.00;101777.38;4989639;28;20050;-67
2023/05/18 07:00:19;;;;;;;9.55;2.72;;;;;;;14.89;100.00;101783.50;4986437;28;20484;-67
2023/05/18 07:02:46;;;;;;;10.82;2.80;;;;;;;14.80;100.00;101797.00;4991597;28;20046;-67
2023/05/18 07:05:13;;;;;;;11.13;2.53;;;;;;;15.04;100.00;101784.66;4985201;28;20397;-67
2023/05/18 07:07:40;;;;;;;9.10;2.85;;;;;;;15.02;100.00;101788.28;4991225;28;20455;-67
2023/05/18 07:10:07;;;;;;;9.10;3.05;;;;;;;15.14;100.00;101790.44;4991501;28;20476;-68
2023/05/18 07:12:34;;;;;;;6.68;2.78;;;;;;;15.26;100.00;101792.56;4991008;28;20408;-67
2023/05/18 07:15:02;;;;;;;10.23;3.00;;;;;;;15.21;100.00;101777.84;4990639;28;20042;-67
2023/05/18 07:17:29;;;;;;;11.52;2.88;;;;;;;15.26;100.00;101781.16;4990739;28;20053;-67
2023/05/18 07:19:56;;;;;;;7.25;2.20;;;;;;;15.24;100.00;101783.84;4991023;28;20116;-67
2023/05/18 07:22:23;;;;;;;9.80;2.35;;;;;;;15.48;100.00;101784.63;4991358;28;20444;-67
2023/05/18 07:24:50;;;;;;;8.68;2.65;;;;;;;15.90;100.00;101786.41;4990538;28;20046;-67
2023/05/18 07:27:19;;;;;;;7.65;2.65;;;;;;;16.05;100.00;101790.16;4987469;28;20496;-67
2023/05/18 07:29:51;;;;;;;9.18;2.70;;;;;;;15.50;100.00;101795.13;4969337;28;20052;-67
2023/05/18 07:32:19;;;;;;;5.97;2.08;;;;;;;15.68;100.00;101786.44;4970575;28;20048;-67
2023/05/18 07:34:46;;;;;;;22.23;20.08;;;;;;;16.04;100.00;101788.47;4989368;28;20069;-68
2023/05/18 07:37:13;;;;;;;8.55;4.07;;;;;;;15.96;100.00;101790.56;4956648;28;20468;-68
2023/05/18 07:39:40;;;;;;;8.05;3.78;;;;;;;16.13;100.00;101792.50;4990546;28;20054;-68
2023/05/18 07:42:07;;;;;;;9.38;3.35;;;;;;;16.26;100.00;101798.06;4985782;28;20052;-68
2023/05/18 07:44:34;;;;;;;7.68;3.05;;;;;;;16.42;100.00;101790.31;4989587;28;20137;-68
2023/05/18 07:47:01;;;;;;;8.55;2.53;;;;;;;16.45;100.00;101793.69;4989743;28;20050;-68
2023/05/18 07:49:28;;;;;;;6.90;2.10;;;;;;;16.57;100.00;101791.38;4977478;28;20050;-68
2023/05/18 07:51:55;;;;;;;7.57;2.22;;;;;;;16.75;100.00;101790.56;4992369;28;20392;-68
2023/05/18 07:54:22;;;;;;;6.95;2.00;;;;;;;16.62;100.00;101795.53;4989903;28;20077;-68
2023/05/18 07:56:49;;;;;;;6.82;2.28;;;;;;;16.63;100.00;101799.06;4989219;28;20146;-68
2023/05/18 07:59:16;;;;;;;7.25;2.33;;;;;;;16.28;100.00;101801.50;4989591;28;20058;-68
2023/05/18 08:01:44;;;;;;;7.57;2.03;;;;;;;16.46;100.00;101800.66;4987935;28;20121;-68
2023/05/18 08:04:11;;;;;;;8.38;2.78;;;;;;;16.39;100.00;101801.03;4987003;28;20058;-68
2023/05/18 08:06:38;;;;;;;5.97;1.98;;;;;;;16.60;100.00;101807.13;4988258;28;20050;-68
2023/05/18 08:09:05;;;;;;;8.38;2.35;;;;;;;16.59;100.00;101808.91;4987062;28;20062;-68
2023/05/18 08:11:32;;;;;;;9.35;2.33;;;;;;;16.62;100.00;101789.41;4988944;28;20044;-68
2023/05/18 08:13:59;;;;;;;6.28;1.80;;;;;;;16.61;100.00;101807.06;4983979;28;20074;-67
2023/05/18 08:16:26;;;;;;;7.82;2.60;;;;;;;16.39;100.00;101811.59;4990358;28;20054;-68
2023/05/18 08:18:53;;;;;;;7.72;2.40;;;;;;;16.61;100.00;101804.41;4990167;28;20137;-67
2023/05/18 08:21:20;;;;;;;8.02;2.15;;;;;;;16.80;100.00;101817.66;4990488;28;20042;-67
2023/05/18 08:23:47;;;;;;;7.18;2.35;;;;;;;16.71;100.00;101810.13;4990908;28;20046;-67
2023/05/18 08:26:13;;;;;;;8.50;2.28;;;;;;;16.87;100.00;101813.81;4990717;28;20050;-68
2023/05/18 08:28:40;;;;;;;7.80;2.47;;;;;;;17.01;100.00;101820.22;4992516;28;20050;-67
2023/05/18 08:31:07;;;;;;;6.95;2.10;;;;;;;16.97;100.00;101805.44;4980601;28;20129;-68
2023/05/18 08:33:34;;;;;;;6.30;1.70;;;;;;;17.14;100.00;101818.72;4991156;28;20575;-68
2023/05/18 08:36:01;;;;;;;9.27;2.20;;;;;;;17.26;100.00;101819.91;4989502;28;20054;-68
2023/05/18 08:38:27;;;;;;;8.93;2.17;;;;;;;17.37;100.00;101816.72;4990443;28;20054;-68
2023/05/18 08:41:25;;;;;;;7.32;2.20;;;;;;;17.58;100.00;101810.41;4990778;28;20049;-69
2023/05/18 08:44:10;;;;;;;7.53;2.00;;;;;;;17.50;100.00;101806.41;4990739;28;20408;-68
2023/05/18 08:46:41;;;;;;;7.55;1.90;;;;;;;17.54;100.00;101808.81;4990571;28;20050;-69
2023/05/18 08:49:09;;;;;;;6.97;2.10;;;;;;;17.98;100.00;101800.44;4977312;28;20548;-69
2023/05/18 08:51:36;;;;;;;8.60;2.70;;;;;;;17.93;100.00;101798.97;4990210;28;20072;-68
2023/05/18 08:54:07;;;;;;;9.88;2.38;;;;;;;18.16;100.00;101795.94;4989889;28;20137;-68
2023/05/18 08:56:35;;;;;;;8.60;2.63;;;;;;;18.17;100.00;101804.78;4990349;28;20171;-68
2023/05/18 08:59:07;;;;;;;9.77;2.30;;;;;;;18.11;100.00;101808.59;4990890;28;20061;-69
2023/05/18 09:01:34;;;;;;;6.55;2.25;;;;;;;17.64;100.00;101793.34;4990283;28;20524;-69
2023/05/18 09:04:03;;;;;;;7.70;2.40;;;;;;;17.89;100.00;101800.91;4989568;28;20136;-69
2023/05/18 09:06:33;;;;;;;8.23;2.47;;;;;;;18.08;100.00;101800.81;4975862;28;20046;-68
2023/05/18 09:09:04;;;;;;;10.18;2.75;;;;;;;18.01;100.00;101802.94;4990259;28;20085;-69
2023/05/18 09:11:34;;;;;;;12.05;2.95;;;;;;;18.00;100.00;101798.56;4969616;28;20134;-69
2023/05/18 09:14:01;;;;;;;7.90;2.47;;;;;;;18.29;100.00;101790.00;4982805;28;20416;-69
2023/05/18 09:16:29;;;;;;;7.07;2.28;;;;;;;18.04;100.00;101799.25;4990150;28;20050;-69
2023/05/18 09:18:56;;;;;;;8.82;2.10;;;;;;;18.13;100.00;101793.50;4990385;28;20782;-68
2023/05/18 09:21:22;;;;;;;8.48;2.80;;;;;;;18.27;100.00;101795.38;4990122;28;20085;-69
2023/05/18 09:23:50;;;;;;;9.65;2.65;;;;;;;18.09;100.00;101789.25;4990675;28;20065;-69
2023/05/18 09:26:21;;;;;;;12.27;3.28;;;;;;;17.76;100.00;101799.78;4990038;28;20112;-69
2023/05/18 09:28:51;;;;;;;7.90;2.90;;;;;;;18.15;100.00;101793.38;4990267;28;20112;-68
2023/05/18 09:31:23;;;;;;;7.32;2.60;;;;;;;17.88;100.00;101777.16;4990084;28;20492;-69
2023/05/18 09:33:51;;;;;;;9.95;2.97;;;;;;;17.86;100.00;101782.50;4990938;28;20416;-68
2023/05/18 09:36:23;;;;;;;9.65;2.78;;;;;;;17.59;100.00;101777.66;4990310;28;20145;-68
2023/05/18 09:38:51;;;;;;;8.82;2.72;;;;;;;17.76;100.00;101781.22;4977445;28;20480;-68
2023/05/18 09:41:18;;;;;;;9.30;2.50;;;;;;;18.03;100.00;101787.81;4990413;28;20412;-69
2023/05/18 09:43:47;;;;;;;9.07;2.60;;;;;;;18.16;100.00;101788.00;4990635;28;20059;-68
2023/05/18 09:46:15;;;;;;;8.00;2.60;;;;;;;18.21;100.00;101775.38;4968350;28;20428;-68
2023/05/18 09:48:45;;;;;;;9.40;2.58;;;;;;;18.45;100.00;101779.44;4981291;28;20097;-69
2023/05/18 09:51:15;;;;;;;7.57;2.55;;;;;;;18.15;100.00;101782.78;4968061;28;20101;-68
2023/05/18 09:53:56;;;;;;;7.88;2.13;;;;;;;18.23;100.00;101780.59;4991809;28;20057;-68
2023/05/18 09:56:25;;;;;;;5.70;1.60;;;;;;;18.71;100.00;101776.19;4979602;28;20080;-67
2023/05/18 09:58:53;;;;;;;6.88;2.20;;;;;;;18.14;100.00;101778.44;4987065;28;20108;-67
2023/05/18 10:01:19;;;;;;;8.82;2.38;;;;;;;18.11;100.00;101782.09;4993180;28;20118;-67
2023/05/18 10:03:48;;;;;;;6.63;2.20;;;;;;;18.14;100.00;101760.72;4993645;28;20097;-68
2023/05/18 10:06:19;;;;;;;7.72;2.45;;;;;;;18.31;100.00;101770.44;4993240;28;20054;-67
2023/05/18 10:08:47;;;;;;;10.27;2.90;;;;;;;18.37;100.00;101769.25;4992414;28;20081;-67
2023/05/18 10:11:18;;;;;;;7.65;2.22;;;;;;;18.60;100.00;101774.16;4992969;28;20146;-68
2023/05/18 10:13:45;;;;;;;9.43;2.78;;;;;;;18.27;100.00;101774.19;4993163;28;20055;-67
2023/05/18 10:16:14;;;;;;;8.98;2.65;;;;;;;17.96;100.00;101777.63;4992734;28;20548;-68
2023/05/18 10:18:41;;;;;;;8.52;2.30;;;;;;;18.24;100.00;101776.13;4975336;28;20058;-69
2023/05/18 10:21:11;;;;;;;7.63;2.20;;;;;;;18.43;100.00;101768.06;4998107;28;20464;-68
2023/05/18 10:23:39;;;;;;;8.90;2.67;;;;;;;18.46;100.00;101781.16;4992742;28;20480;-68
2023/05/18 10:26:08;;;;;;;9.45;2.35;;;;;;;18.33;100.00;101781.81;4993007;28;20535;-68
2023/05/18 10:28:38;;;;;;;7.47;2.40;;;;;;;18.68;100.00;101784.34;4979321;28;20073;-68
2023/05/18 10:31:07;;;;;;;8.52;2.20;;;;;;;18.54;100.00;101781.59;4993452;28;20089;-68
2023/05/18 10:33:35;;;;;;;9.75;2.97;;;;;;;18.25;100.00;101772.56;4993392;28;20057;-68
2023/05/18 10:36:04;;;;;;;8.57;2.30;;;;;;;18.30;100.00;101752.81;4993166;28;20058;-68
2023/05/18 10:38:32;;;;;;;8.93;2.45;;;;;;;18.68;100.00;101776.41;4992424;28;20502;-67
2023/05/18 10:41:00;;;;;;;8.32;2.40;;;;;;;18.79;100.00;101781.94;4992830;28;20061;-67
2023/05/18 10:43:27;;;;;;;8.00;2.28;;;;;;;18.77;100.00;101777.69;4992700;28;20070;-67
2023/05/18 10:45:58;;;;;;;6.43;1.92;;;;;;;18.84;100.00;101780.84;4991784;28;20054;-68
2023/05/18 10:48:27;;;;;;;9.23;2.70;;;;;;;18.48;100.00;101780.13;4991959;28;20054;-68
2023/05/18 10:50:56;;;;;;;7.60;2.22;;;;;;;18.85;100.00;101777.28;4991691;28;20377;-68
2023/05/18 10:53:26;;;;;;;6.68;2.17;;;;;;;18.71;100.00;101770.03;4992560;28;20054;-68
2023/05/18 10:55:53;;;;;;;6.35;1.90;;;;;;;19.09;100.00;101769.75;4991570;28;20133;-68
2023/05/18 10:58:26;;;;;;;7.85;2.60;;;;;;;18.66;100.00;101782.72;4992529;28;20141;-68
2023/05/18 11:00:58;;;;;;;9.45;2.40;;;;;;;18.86;100.00;101784.31;4992217;28;20058;-69
2023/05/18 11:03:27;;;;;;;8.00;2.30;;;;;;;18.67;100.00;101772.00;4992678;28;20492;-68
2023/05/18 11:06:09;;;;;;;7.40;2.10;;;;;;;18.96;100.00;101767.78;4991282;28;20053;-69
2023/05/18 11:08:49;;;;;;;7.45;2.17;;;;;;;19.10;100.00;101774.09;4992358;28;20050;-69
2023/05/18 11:11:17;;;;;;;7.68;2.53;;;;;;;19.07;100.00;101771.59;4991929;28;20396;-69
2023/05/18 11:13:50;;;;;;;11.23;2.95;;;;;;;18.65;100.00;101773.91;4991258;28;20582;-69
2023/05/18 11:16:18;;;;;;;8.63;2.53;;;;;;;18.89;100.00;101770.84;4992346;28;20056;-69
2023/05/18 11:18:51;;;;;;;8.63;2.28;;;;;;;19.21;100.00;101769.03;4992347;28;20149;-69
2023/05/18 11:21:34;;;;;;;9.65;2.88;;;;;;;18.64;100.00;101766.03;4997175;28;20496;-68